Terminal Aerodrome Forecast
Issued by NWS

Home | Current Version | Previous Version | Text Only | Print | Product List | Glossary On
Versions: 1 2 3 4 5 6 7 8 9 10 11 12
000
FTUS42 TJSJ 250500
TAFKPK
TAF
TKPK 250520Z 2506/2606 05013KT P6SM VCSH SCT020
      TEMPO 2506/2510 SHRA BKN020
      AMD NOT SKED TIL 251100=

USA.gov is the U.S. government's official web portal to all federal, state and local government web resources and services.